Time;durP1;ratioP1;P1;durP2;ratioP2;P2;SDS_P1;SDS_P2;PMS_P1;PMS_P2;Temp;Humidity;BMP_temperature;BMP_pressure;BME280_temperature;BME280_humidity;BME280_pressure;Samples;Min_cycle;Max_cycle;Signal;HPM_P1;HPM_P2
2021/09/15 00:00:45;;;;;;;0.73;0.73;;;;;;;9.05;60.19;99197.97;5050619;28;20099;-79
2021/09/15 00:03:36;;;;;;;0.52;0.52;;;;;;;9.12;59.36;99214.91;5050372;28;20090;-79
2021/09/15 00:06:22;;;;;;;0.50;0.50;;;;;;;9.15;59.78;99199.09;5036913;28;20041;-80
2021/09/15 00:09:08;;;;;;;0.85;0.85;;;;;;;9.14;60.26;99218.25;5050285;28;20048;-78
2021/09/15 00:11:54;;;;;;;0.40;0.40;;;;;;;9.18;59.50;99217.16;5050079;28;20818;-79
2021/09/15 00:14:40;;;;;;;0.30;0.30;;;;;;;9.13;60.21;99198.34;5050108;28;20053;-79
2021/09/15 00:17:26;;;;;;;0.30;0.30;;;;;;;9.19;59.87;99212.78;5035845;28;20143;-78
2021/09/15 00:20:12;;;;;;;0.63;0.63;;;;;;;9.18;59.53;99214.53;5050736;28;20053;-78
2021/09/15 00:22:57;;;;;;;0.30;0.30;;;;;;;9.15;59.94;99217.34;5050209;28;20048;-79
2021/09/15 00:25:43;;;;;;;0.85;0.85;;;;;;;9.15;60.53;99219.94;5050245;28;20436;-78
2021/09/15 00:28:29;;;;;;;0.57;0.57;;;;;;;9.11;60.44;99223.63;5049887;28;20067;-78
2021/09/15 00:31:15;;;;;;;6.30;1.20;;;;;;;9.12;60.07;99214.06;5049599;28;20465;-77
2021/09/15 00:34:01;;;;;;;0.40;0.40;;;;;;;9.07;60.05;99216.94;5034733;28;20508;-77
2021/09/15 00:36:46;;;;;;;0.30;0.30;;;;;;;9.10;61.23;99232.38;5035044;28;20045;-78
2021/09/15 00:39:32;;;;;;;0.30;0.30;;;;;;;9.05;60.40;99234.41;5035009;28;20049;-77
2021/09/15 00:42:22;;;;;;;0.40;0.40;;;;;;;9.05;60.58;99224.00;5034714;28;20045;-77
2021/09/15 00:45:09;;;;;;;0.30;0.30;;;;;;;9.04;60.77;99231.91;5007345;28;20155;-76
2021/09/15 00:47:55;;;;;;;1.10;1.10;;;;;;;9.03;60.87;99231.06;5038600;28;20053;-76
2021/09/15 00:50:41;;;;;;;0.50;0.50;;;;;;;9.05;60.93;99224.00;5049559;28;20578;-76
2021/09/15 00:53:31;;;;;;;0.43;0.43;;;;;;;9.04;61.55;99237.94;5034613;28;20052;-75
2021/09/15 00:56:17;;;;;;;0.47;0.47;;;;;;;9.03;61.02;99236.25;5049494;28;20155;-75
2021/09/15 00:59:03;;;;;;;0.40;0.40;;;;;;;9.04;61.14;99239.69;5034630;28;20044;-75
2021/09/15 01:01:49;;;;;;;0.40;0.40;;;;;;;9.04;61.54;99239.69;5049329;28;20447;-75
2021/09/15 01:04:36;;;;;;;0.40;0.40;;;;;;;9.00;61.40;99233.03;5034532;28;20165;-74
2021/09/15 01:07:25;;;;;;;0.30;0.30;;;;;;;9.07;61.08;99240.38;5021029;28;20082;-75
2021/09/15 01:10:13;;;;;;;0.50;0.50;;;;;;;9.08;61.73;99225.59;5020781;28;20052;-75
2021/09/15 01:13:09;;;;;;;0.35;0.35;;;;;;;9.06;61.05;99241.31;5035660;28;20078;-74
2021/09/15 01:16:14;;;;;;;0.50;0.50;;;;;;;9.06;61.59;99241.31;5035477;28;20045;-75
2021/09/15 01:19:23;;;;;;;0.40;0.40;;;;;;;9.10;61.35;99234.97;5037678;28;20057;-73
2021/09/15 01:22:37;;;;;;;0.40;0.40;;;;;;;9.10;61.66;99241.94;5034898;28;20056;-76
2021/09/15 01:25:41;;;;;;;0.30;0.30;;;;;;;9.04;61.84;99230.13;5049627;28;20072;-77
2021/09/15 01:28:48;;;;;;;0.40;0.40;;;;;;;9.11;61.59;99233.22;5034207;28;20049;-77
2021/09/15 01:31:38;;;;;;;0.63;0.63;;;;;;;9.10;61.67;99244.56;5048282;28;20459;-76
2021/09/15 01:34:24;;;;;;;0.40;0.40;;;;;;;9.11;61.96;99239.25;5048986;28;20044;-75
2021/09/15 01:37:11;;;;;;;0.40;0.40;;;;;;;9.12;61.85;99251.38;5048720;28;20111;-76
2021/09/15 01:40:08;;;;;;;0.70;0.70;;;;;;;9.09;61.81;99235.94;5033943;28;20080;-76
2021/09/15 01:42:56;;;;;;;1.85;1.42;;;;;;;9.09;61.81;99250.72;5034462;28;20052;-76
2021/09/15 01:45:41;;;;;;;0.40;0.40;;;;;;;9.07;62.41;99258.59;5020462;28;20048;-76
2021/09/15 01:48:36;;;;;;;0.40;0.40;;;;;;;9.07;62.26;99248.19;5049284;28;20611;-77
2021/09/15 01:51:22;;;;;;;0.88;0.88;;;;;;;9.09;62.08;99254.16;5048970;28;20132;-76
2021/09/15 01:54:08;;;;;;;0.40;0.40;;;;;;;9.07;62.44;99253.38;5034165;28;20546;-76
2021/09/15 01:56:54;;;;;;;0.85;0.85;;;;;;;9.04;62.09;99250.97;5034093;28;20056;-77
2021/09/15 02:00:15;;;;;;;;;;;;;;;9.03;63.26;99259.69;4968106;28;20050;-78
2021/09/15 02:03:01;;;;;;;0.40;0.40;;;;;;;9.02;62.16;99250.22;5049100;28;19920;-77
2021/09/15 02:05:57;;;;;;;0.40;0.40;;;;;;;8.98;62.50;99250.47;5034336;28;20473;-77
2021/09/15 02:09:05;;;;;;;1.13;1.02;;;;;;;9.02;63.00;99252.81;5023296;28;20044;-76
2021/09/15 02:12:03;;;;;;;0.60;0.60;;;;;;;8.94;63.00;99247.22;5033584;28;20049;-77
2021/09/15 02:14:53;;;;;;;0.30;0.30;;;;;;;9.03;63.35;99262.28;5007895;28;20060;-76
2021/09/15 02:17:40;;;;;;;5.97;0.70;;;;;;;8.99;63.35;99253.00;5035626;28;20063;-77
2021/09/15 02:20:38;;;;;;;0.40;0.40;;;;;;;9.04;62.94;99258.78;5040010;28;20052;-79
2021/09/15 02:23:38;;;;;;;0.30;0.30;;;;;;;9.02;63.30;99260.63;5052620;28;20060;-77
2021/09/15 02:26:41;;;;;;;0.40;0.40;;;;;;;8.99;63.45;99250.41;5028525;28;20045;-76
2021/09/15 02:29:28;;;;;;;0.40;0.40;;;;;;;9.03;63.48;99267.50;5038087;28;20045;-75
2021/09/15 02:32:37;;;;;;;0.90;0.77;;;;;;;9.04;63.49;99252.72;5063170;28;20412;-78
2021/09/15 02:35:46;;;;;;;0.40;0.40;;;;;;;8.97;63.58;99257.44;5037170;28;20136;-78
2021/09/15 02:38:51;;;;;;;0.77;0.77;;;;;;;9.06;64.10;99275.16;5051265;28;20048;-77
2021/09/15 02:42:16;;;;;;;0.40;0.40;;;;;;;9.06;63.95;99275.16;5039281;28;20437;-77
2021/09/15 02:45:18;;;;;;;0.55;0.55;;;;;;;9.10;63.85;99274.03;5050925;28;20459;-76
2021/09/15 02:48:21;;;;;;;0.50;0.50;;;;;;;9.07;63.38;99269.00;5037686;28;20059;-76
2021/09/15 02:51:23;;;;;;;0.50;0.50;;;;;;;9.11;63.87;99282.69;5036737;28;20519;-76
2021/09/15 02:54:36;;;;;;;0.50;0.50;;;;;;;9.11;64.32;99278.31;5051695;28;20060;-77
2021/09/15 02:57:34;;;;;;;0.50;0.50;;;;;;;9.06;64.46;99282.97;5050631;28;20045;-77
2021/09/15 03:00:36;;;;;;;;;;;;;;;9.03;64.06;99283.13;5025784;28;20055;-76
2021/09/15 03:03:27;;;;;;;0.40;0.40;;;;;;;9.03;64.90;99283.13;5037498;28;20320;-72
2021/09/15 03:06:26;;;;;;;0.30;0.30;;;;;;;9.03;64.21;99293.53;5024614;28;20049;-73
2021/09/15 03:09:29;;;;;;;0.60;0.60;;;;;;;9.03;64.43;99283.13;5050190;28;20136;-75
2021/09/15 03:12:15;;;;;;;0.50;0.50;;;;;;;9.03;64.89;99298.75;5050035;28;20080;-73
2021/09/15 03:15:01;;;;;;;0.75;0.75;;;;;;;9.03;65.01;99288.31;5050497;28;20041;-73
2021/09/15 03:17:46;;;;;;;0.45;0.45;;;;;;;9.07;64.68;99304.59;5022816;28;20087;-74
2021/09/15 03:20:33;;;;;;;0.40;0.40;;;;;;;8.95;65.23;99284.50;5050588;28;20114;-74
2021/09/15 03:23:19;;;;;;;0.40;0.40;;;;;;;9.04;65.14;99295.22;5036667;28;20099;-73
2021/09/15 03:26:05;;;;;;;0.45;0.45;;;;;;;9.03;65.16;99277.91;5036433;28;20044;-74
2021/09/15 03:28:52;;;;;;;0.40;0.40;;;;;;;9.01;65.12;99294.56;5036620;28;20546;-76
2021/09/15 03:31:38;;;;;;;0.40;0.40;;;;;;;9.04;64.83;99286.56;5047771;28;20083;-75
2021/09/15 03:34:24;;;;;;;0.50;0.50;;;;;;;9.02;64.53;99281.47;5020597;28;20040;-74
2021/09/15 03:37:11;;;;;;;0.40;0.40;;;;;;;9.02;65.03;99291.88;5040924;28;20524;-74
2021/09/15 03:39:57;;;;;;;0.50;0.50;;;;;;;9.05;64.78;99296.91;5040621;28;20049;-75
2021/09/15 03:42:44;;;;;;;0.40;0.40;;;;;;;9.03;65.32;99280.50;5040749;28;20097;-75
2021/09/15 03:45:31;;;;;;;0.30;0.30;;;;;;;9.07;65.15;99289.84;5040332;28;20045;-75
2021/09/15 03:48:17;;;;;;;1.98;0.60;;;;;;;9.04;65.34;99300.44;5047630;28;20037;-76
2021/09/15 03:51:03;;;;;;;0.60;0.60;;;;;;;9.10;64.74;99299.22;5064483;28;20139;-76
2021/09/15 03:53:49;;;;;;;0.57;0.57;;;;;;;9.11;65.42;99306.97;5064517;28;20076;-77
2021/09/15 03:56:35;;;;;;;0.50;0.50;;;;;;;9.09;65.53;99313.19;5063554;28;20047;-78
2021/09/15 03:59:21;;;;;;;0.40;0.40;;;;;;;9.12;65.22;99313.84;5063445;28;20484;-80
2021/09/15 04:02:07;;;;;;;0.50;0.50;;;;;;;9.08;65.63;99317.56;5030581;28;20056;-77
2021/09/15 04:04:52;;;;;;;0.40;0.40;;;;;;;9.12;65.08;99328.63;5043449;28;20141;-77
2021/09/15 04:07:41;;;;;;;0.30;0.30;;;;;;;9.12;65.17;99324.28;5043020;28;20037;-77
2021/09/15 04:10:44;;;;;;;0.40;0.40;;;;;;;9.11;65.55;99317.38;5043104;28;20483;-75
2021/09/15 04:13:36;;;;;;;0.82;0.82;;;;;;;9.11;65.89;99329.56;5031683;28;20049;-79
2021/09/15 04:16:22;;;;;;;0.50;0.50;;;;;;;9.13;65.98;99336.34;5047548;28;20057;-75
2021/09/15 04:19:08;;;;;;;0.68;0.68;;;;;;;9.16;66.20;99328.34;5049323;28;20065;-76
2021/09/15 04:22:03;;;;;;;0.70;0.70;;;;;;;9.19;65.52;99329.97;5061473;28;20428;-76
2021/09/15 04:34:01;;;;;;;0.30;0.30;;;;;;;9.15;65.88;99355.34;5042719;28;20126;-80
2021/09/15 04:36:52;;;;;;;0.40;0.40;;;;;;;9.12;66.28;99332.09;5042748;28;20455;-76
2021/09/15 04:39:38;;;;;;;0.75;0.75;;;;;;;9.16;65.73;99335.34;5029759;28;20041;-77
2021/09/15 04:42:25;;;;;;;0.50;0.50;;;;;;;9.20;66.17;99347.25;5042305;28;20049;-77
2021/09/15 04:45:11;;;;;;;0.57;0.57;;;;;;;9.23;66.03;99352.28;5042292;28;20045;-78
2021/09/15 04:47:57;;;;;;;0.40;0.40;;;;;;;9.21;65.91;99347.19;5028526;28;20057;-74
2021/09/15 04:50:43;;;;;;;0.38;0.38;;;;;;;9.15;66.51;99352.75;5042171;28;20049;-75
2021/09/15 04:53:29;;;;;;;0.50;0.50;;;;;;;9.14;66.22;99342.41;5055780;28;20064;-74
2021/09/15 04:56:15;;;;;;;0.47;0.47;;;;;;;9.12;66.74;99355.53;5029669;28;20053;-78
2021/09/15 04:59:01;;;;;;;0.50;0.50;;;;;;;9.10;66.21;99367.75;5028516;28;20111;-77
2021/09/15 05:01:47;;;;;;;0.63;0.63;;;;;;;9.11;66.02;99364.25;5042560;28;20056;-76
2021/09/15 05:04:32;;;;;;;0.50;0.50;;;;;;;9.15;66.52;99381.38;5041874;28;20151;-80
2021/09/15 05:07:30;;;;;;;0.30;0.30;;;;;;;9.19;66.85;99379.44;5042436;28;20545;-79
2021/09/15 05:10:16;;;;;;;0.50;0.50;;;;;;;9.20;66.91;99394.97;5042348;28;20057;-79
2021/09/15 05:13:02;;;;;;;0.82;0.77;;;;;;;9.17;66.59;99387.34;5029772;28;20056;-80
2021/09/15 05:15:48;;;;;;;0.60;0.60;;;;;;;9.17;66.04;99395.13;5056470;28;20045;-80
2021/09/15 05:18:34;;;;;;;0.50;0.50;;;;;;;9.21;67.01;99396.66;5029328;28;20136;-80
2021/09/15 05:21:22;;;;;;;1.40;1.40;;;;;;;9.25;66.61;99398.16;5059239;28;20057;-74
2021/09/15 05:24:08;;;;;;;0.65;0.65;;;;;;;9.26;67.22;99389.41;5058946;28;20596;-75
2021/09/15 05:26:54;;;;;;;0.57;0.57;;;;;;;9.20;67.11;99402.78;5056546;28;20049;-75
2021/09/15 05:29:40;;;;;;;0.50;0.50;;;;;;;9.17;67.05;99402.94;5044111;28;20049;-76
2021/09/15 05:32:26;;;;;;;0.43;0.43;;;;;;;9.25;66.34;99402.53;5052921;28;20049;-76
2021/09/15 05:35:12;;;;;;;0.70;0.70;;;;;;;9.22;66.71;99377.50;5061874;28;20051;-78
2021/09/15 05:37:58;;;;;;;0.60;0.60;;;;;;;9.26;66.34;99412.84;5048008;28;20053;-78
2021/09/15 05:40:44;;;;;;;0.68;0.68;;;;;;;9.28;66.48;99413.63;5061968;28;20495;-79
2021/09/15 05:43:31;;;;;;;0.40;0.40;;;;;;;9.33;67.23;99410.72;5061003;28;20261;-78
2021/09/15 05:46:17;;;;;;;0.63;0.63;;;;;;;9.29;67.37;99394.44;5062329;28;20048;-76
2021/09/15 05:49:20;;;;;;;0.50;0.50;;;;;;;9.39;66.89;99416.44;5050000;28;20045;-79
2021/09/15 05:52:07;;;;;;;0.60;0.60;;;;;;;9.35;67.15;99409.75;5050422;28;20084;-78
2021/09/15 05:54:52;;;;;;;0.75;0.65;;;;;;;9.19;68.24;99411.53;5053740;28;20543;-78
2021/09/15 05:57:38;;;;;;;6.82;1.10;;;;;;;9.17;67.82;99415.13;5051622;28;20458;-75
2021/09/15 06:00:25;;;;;;;0.40;0.40;;;;;;;9.04;68.95;99409.78;5052881;28;20045;-78
2021/09/15 06:02:55;;;;;;;0.40;0.40;;;;;;;9.05;69.02;99428.84;5035193;28;20128;-75
2021/09/15 06:05:59;;;;;;;0.60;0.60;;;;;;;9.09;69.27;99433.81;5010243;28;20054;-77
2021/09/15 06:08:27;;;;;;;0.60;0.60;;;;;;;9.14;68.95;99417.91;4977264;28;20201;-76
2021/09/15 06:10:53;;;;;;;0.70;0.70;;;;;;;9.18;68.93;99438.50;5013159;28;20049;-79
2021/09/15 06:13:19;;;;;;;0.77;0.77;;;;;;;9.24;68.61;99434.69;5052194;28;20060;-76
2021/09/15 06:15:45;;;;;;;0.40;0.40;;;;;;;9.25;68.01;99423.38;5052688;28;20045;-79
2021/09/15 06:18:11;;;;;;;0.63;0.63;;;;;;;9.25;68.67;99439.84;5067950;28;20051;-78
2021/09/15 06:24:21;;;;;;;0.70;0.70;;;;;;;9.24;68.56;99459.00;4996759;28;20083;-78
2021/09/15 06:27:18;;;;;;;0.40;0.40;;;;;;;9.26;68.73;99449.31;4960442;28;20047;-76
2021/09/15 06:29:49;;;;;;;0.60;0.60;;;;;;;9.31;68.41;99449.91;5030776;28;20055;-79
2021/09/15 06:32:34;;;;;;;0.47;0.47;;;;;;;9.42;69.11;99446.72;5036998;28;20049;-77
2021/09/15 06:35:23;;;;;;;0.73;0.73;;;;;;;9.34;69.15;99444.53;5036439;28;20045;-77
2021/09/15 06:37:53;;;;;;;0.60;0.60;;;;;;;9.43;68.88;99451.81;5036964;28;20048;-78
2021/09/15 06:40:21;;;;;;;0.40;0.40;;;;;;;9.43;68.51;99451.81;5019670;28;20174;-78
2021/09/15 06:43:06;;;;;;;0.65;0.65;;;;;;;9.52;67.91;99453.03;5053047;28;20048;-74
2021/09/15 06:45:32;;;;;;;1.33;1.05;;;;;;;9.42;68.35;99447.53;5053821;28;20052;-73
2021/09/15 06:48:03;;;;;;;1.27;1.17;;;;;;;9.52;68.35;99460.06;4986612;28;20049;-75
2021/09/15 06:50:29;;;;;;;9.02;2.05;;;;;;;9.32;69.09;99451.59;5033878;28;20077;-73
2021/09/15 06:52:55;;;;;;;0.75;0.75;;;;;;;9.33;68.14;99453.25;5034174;28;20060;-74
2021/09/15 06:55:29;;;;;;;0.50;0.50;;;;;;;9.47;68.23;99459.47;5052827;28;20056;-76
2021/09/15 06:57:56;;;;;;;1.92;0.60;;;;;;;9.52;67.85;99452.22;5018075;28;20143;-72
2021/09/15 07:00:22;;;;;;;0.40;0.40;;;;;;;9.60;68.12;99466.50;5051937;28;20041;-74
2021/09/15 07:02:48;;;;;;;0.65;0.65;;;;;;;9.60;67.91;99460.44;5052306;28;20134;-73
2021/09/15 07:05:16;;;;;;;18.20;1.45;;;;;;;9.56;68.06;99464.13;5052110;28;20052;-76
2021/09/15 07:07:46;;;;;;;0.50;0.50;;;;;;;9.51;68.34;99471.38;5052439;28;20057;-75
2021/09/15 07:10:24;;;;;;;0.80;0.80;;;;;;;9.63;68.00;99471.53;5019204;28;20057;-75
2021/09/15 07:12:50;;;;;;;0.30;0.30;;;;;;;9.68;67.16;99469.50;5035895;28;20139;-72
2021/09/15 07:15:16;;;;;;;1.05;1.05;;;;;;;9.73;66.55;99464.03;5035197;28;20130;-74
2021/09/15 07:17:54;;;;;;;0.85;0.85;;;;;;;9.75;66.26;99457.78;5034813;28;20053;-72
2021/09/15 07:20:23;;;;;;;1.15;0.95;;;;;;;9.87;66.19;99470.13;5054707;28;20537;-74
2021/09/15 07:22:56;;;;;;;1.42;1.35;;;;;;;10.01;66.01;99461.50;5057160;28;20045;-72
2021/09/15 07:25:25;;;;;;;0.30;0.30;;;;;;;9.83;65.07;99455.59;5037846;28;20045;-74
2021/09/15 07:27:50;;;;;;;0.40;0.40;;;;;;;9.85;65.76;99461.53;5035008;28;20475;-72
2021/09/15 07:30:16;;;;;;;0.65;0.65;;;;;;;9.86;66.01;99463.22;5034849;28;20092;-74
2021/09/15 07:32:43;;;;;;;0.82;0.82;;;;;;;9.94;66.49;99457.56;5050273;28;20049;-74
2021/09/15 07:35:10;;;;;;;0.52;0.52;;;;;;;9.82;66.53;99446.06;5050075;28;20090;-73
2021/09/15 07:37:38;;;;;;;0.40;0.40;;;;;;;9.79;67.32;99461.06;5051843;28;20051;-73
2021/09/15 07:40:24;;;;;;;0.43;0.43;;;;;;;9.77;67.49;99468.13;5037126;28;20057;-74
2021/09/15 07:43:01;;;;;;;0.52;0.52;;;;;;;9.84;67.04;99470.31;5051504;28;20049;-74
2021/09/15 07:45:28;;;;;;;0.73;0.73;;;;;;;9.69;67.57;99459.91;5034199;28;20138;-74
2021/09/15 07:48:06;;;;;;;0.30;0.30;;;;;;;9.66;67.79;99471.34;5056704;28;20064;-74
2021/09/15 07:51:19;;;;;;;0.43;0.43;;;;;;;9.81;67.07;99478.31;5034864;28;20478;-72
2021/09/15 07:53:45;;;;;;;0.50;0.50;;;;;;;9.79;67.13;99468.88;5041742;28;20049;-74
2021/09/15 07:56:19;;;;;;;0.60;0.60;;;;;;;9.69;67.95;99481.59;5033945;28;20131;-73
2021/09/15 07:58:48;;;;;;;0.43;0.43;;;;;;;9.67;67.98;99493.88;5050239;28;20512;-73
2021/09/15 08:01:21;;;;;;;0.40;0.40;;;;;;;9.76;67.57;99498.56;5066944;28;20147;-74
2021/09/15 08:03:50;;;;;;;0.73;0.63;;;;;;;9.64;66.35;99494.06;5050415;28;20051;-73
2021/09/15 08:06:16;;;;;;;0.52;0.52;;;;;;;9.65;66.43;99481.88;5066896;28;20310;-74
2021/09/15 08:08:42;;;;;;;0.60;0.60;;;;;;;9.77;67.26;99504.63;5049942;28;20098;-74
2021/09/15 08:11:11;;;;;;;2.40;0.73;;;;;;;9.76;67.11;99488.16;5051189;28;20040;-73
2021/09/15 08:13:41;;;;;;;0.73;0.73;;;;;;;9.75;66.53;99496.88;5051325;28;20104;-73
2021/09/15 08:16:10;;;;;;;0.90;0.73;;;;;;;9.74;66.13;99500.44;5050111;28;20423;-72
2021/09/15 08:18:37;;;;;;;0.68;0.68;;;;;;;9.75;65.80;99511.72;5050921;28;20040;-72
2021/09/15 08:21:03;;;;;;;0.52;0.52;;;;;;;9.80;66.70;99512.28;5051165;28;20049;-74
2021/09/15 08:23:36;;;;;;;0.30;0.30;;;;;;;9.74;66.13;99510.03;5029289;28;20041;-77
2021/09/15 08:26:08;;;;;;;1.55;1.45;;;;;;;9.75;65.67;99520.34;5065502;28;20048;-75
2021/09/15 08:28:39;;;;;;;1.00;1.00;;;;;;;9.77;65.41;99515.91;5049826;28;20087;-74
2021/09/15 08:31:10;;;;;;;0.88;0.88;;;;;;;9.69;65.02;99481.59;5045310;28;20041;-73
2021/09/15 08:33:37;;;;;;;0.40;0.40;;;;;;;9.78;65.43;99521.97;5049336;28;20586;-73
2021/09/15 08:36:03;;;;;;;0.50;0.50;;;;;;;9.73;65.66;99517.00;5042002;28;20046;-72
2021/09/15 08:38:30;;;;;;;0.47;0.47;;;;;;;9.74;64.82;99531.72;5045385;28;20061;-73
2021/09/15 08:40:56;;;;;;;0.77;0.77;;;;;;;9.77;64.56;99535.91;5030606;28;20049;-73
2021/09/15 08:43:26;;;;;;;3.25;2.90;;;;;;;9.76;64.67;99544.66;5039234;28;20045;-70
2021/09/15 08:45:57;;;;;;;1.63;1.63;;;;;;;9.79;65.00;99540.09;5049999;28;20107;-69
2021/09/15 08:48:27;;;;;;;1.33;1.33;;;;;;;9.78;64.06;99540.22;5048221;28;20056;-70
2021/09/15 08:50:54;;;;;;;0.93;0.93;;;;;;;9.82;63.90;99541.69;5049110;28;20052;-72
2021/09/15 08:53:21;;;;;;;0.52;0.52;;;;;;;9.85;63.74;99544.13;5049587;28;20056;-73
2021/09/15 08:55:47;;;;;;;0.50;0.50;;;;;;;9.89;63.35;99549.09;5065898;28;20048;-70
2021/09/15 08:58:14;;;;;;;0.82;0.82;;;;;;;10.02;63.72;99549.22;5049958;28;20048;-72
2021/09/15 09:00:44;;;;;;;1.55;0.70;;;;;;;10.09;63.20;99542.72;5047946;28;20059;-74
2021/09/15 09:03:19;;;;;;;2.55;2.35;;;;;;;10.03;62.74;99535.25;5039334;28;20135;-71
2021/09/15 09:05:46;;;;;;;0.82;0.82;;;;;;;10.11;62.46;99550.47;5023160;28;20049;-71
2021/09/15 09:08:25;;;;;;;0.45;0.45;;;;;;;10.02;61.89;99550.97;5044876;28;20139;-73
2021/09/15 09:10:59;;;;;;;0.55;0.55;;;;;;;10.10;62.64;99565.28;5045748;28;20100;-71
2021/09/15 09:13:25;;;;;;;0.40;0.40;;;;;;;10.10;62.79;99565.28;5029592;28;20059;-72
2021/09/15 09:15:53;;;;;;;0.40;0.40;;;;;;;10.09;61.59;99563.59;5034700;28;20140;-71
2021/09/15 09:18:20;;;;;;;0.40;0.40;;;;;;;10.01;61.18;99549.31;5044873;28;20050;-72
2021/09/15 09:21:06;;;;;;;;;;;;;;;;;;;;;
2021/09/15 09:23:38;;;;;;;0.57;0.57;;;;;;;9.99;61.90;99566.81;5024212;28;20057;-73
2021/09/15 09:26:04;;;;;;;0.40;0.40;;;;;;;10.07;61.54;99575.88;5027983;28;20053;-72
2021/09/15 09:28:40;;;;;;;0.47;0.47;;;;;;;10.06;61.85;99563.78;5031946;28;20128;-72
2021/09/15 09:31:22;;;;;;;0.68;0.43;;;;;;;10.08;61.56;99569.72;5046980;28;20056;-72
2021/09/15 09:34:15;;;;;;;1.20;1.10;;;;;;;10.06;61.90;99571.59;5028931;28;20056;-70
2021/09/15 09:36:43;;;;;;;0.65;0.65;;;;;;;10.23;61.56;99581.09;5018701;28;20041;-73
2021/09/15 09:39:36;;;;;;;0.45;0.45;;;;;;;10.11;61.23;99566.94;5051407;28;20052;-70
2021/09/15 09:42:24;;;;;;;0.60;0.60;;;;;;;10.16;60.86;99579.75;5066314;28;20320;-70
2021/09/15 09:45:16;;;;;;;0.47;0.47;;;;;;;10.14;61.00;99584.25;5052092;28;20064;-72
2021/09/15 09:47:46;;;;;;;2.17;0.52;;;;;;;10.09;61.29;99591.44;5051104;28;20060;-73
2021/09/15 09:50:19;;;;;;;0.50;0.50;;;;;;;10.15;60.97;99588.50;5052357;28;20056;-71
2021/09/15 09:53:14;;;;;;;3.60;1.05;;;;;;;10.14;60.32;99603.34;5063965;28;20578;-71
2021/09/15 09:56:03;;;;;;;0.30;0.30;;;;;;;10.32;59.79;99591.84;5050756;28;20064;-71
2021/09/15 09:58:49;;;;;;;1.02;1.02;;;;;;;10.36;59.81;99582.06;5050925;28;20060;-72
2021/09/15 10:01:43;;;;;;;0.60;0.60;;;;;;;10.27;59.21;99588.66;5048084;28;20052;-73
2021/09/15 10:05:03;;;;;;;0.50;0.50;;;;;;;10.45;59.37;99587.56;5056928;28;20041;-75
2021/09/15 10:07:57;;;;;;;2.65;0.75;;;;;;;10.45;58.25;99581.50;5051979;28;20052;-71
2021/09/15 10:10:59;;;;;;;0.52;0.52;;;;;;;10.64;58.21;99591.69;5064321;28;20048;-71
2021/09/15 10:13:44;;;;;;;0.60;0.60;;;;;;;10.76;56.84;99601.44;5045773;28;20053;-71
2021/09/15 10:16:33;;;;;;;0.70;0.70;;;;;;;10.69;56.08;99594.91;5051429;28;20045;-71
2021/09/15 10:19:19;;;;;;;0.35;0.35;;;;;;;10.78;56.74;99604.78;5064114;28;20045;-70
2021/09/15 10:22:05;;;;;;;0.73;0.73;;;;;;;11.08;56.36;99597.72;5051566;28;20076;-69
2021/09/15 10:24:55;;;;;;;0.50;0.50;;;;;;;11.23;55.60;99595.94;5050804;28;20059;-70
2021/09/15 10:27:58;;;;;;;0.40;0.40;;;;;;;11.20;55.10;99602.19;5044502;28;20057;-73
2021/09/15 10:30:51;;;;;;;0.50;0.50;;;;;;;11.76;54.20;99595.22;5044234;28;20051;-70
2021/09/15 10:33:38;;;;;;;0.63;0.63;;;;;;;11.61;54.30;99599.63;5051625;28;20064;-71
2021/09/15 10:36:37;;;;;;;0.70;0.70;;;;;;;11.46;53.15;99593.56;5032898;28;20110;-70
2021/09/15 10:39:23;;;;;;;8.23;0.63;;;;;;;11.24;54.16;99593.22;5049984;28;20052;-72
2021/09/15 10:42:33;;;;;;;0.70;0.70;;;;;;;11.47;53.67;99600.50;5051063;28;20118;-73
2021/09/15 10:45:48;;;;;;;0.35;0.35;;;;;;;11.57;53.57;99612.97;5045327;28;20057;-73
2021/09/15 10:49:11;;;;;;;12.57;0.77;;;;;;;11.52;53.51;99601.97;5031541;28;20053;-70
2021/09/15 10:52:09;;;;;;;0.30;0.30;;;;;;;11.46;53.65;99608.41;5033168;28;20428;-71
2021/09/15 10:54:57;;;;;;;0.40;0.40;;;;;;;11.39;53.39;99607.13;5029102;28;20061;-71
2021/09/15 10:57:46;;;;;;;0.30;0.30;;;;;;;11.28;54.57;99614.78;5028794;28;20087;-71
2021/09/15 11:00:50;;;;;;;4.47;0.80;;;;;;;11.38;53.82;99624.59;5015281;28;20042;-70
2021/09/15 11:03:40;;;;;;;0.70;0.70;;;;;;;11.42;53.96;99631.28;5037116;28;20140;-70
2021/09/15 11:06:51;;;;;;;0.68;0.68;;;;;;;11.41;53.15;99632.25;5029598;28;20412;-72
2021/09/15 11:09:42;;;;;;;0.68;0.68;;;;;;;11.45;53.48;99632.91;5014915;28;20057;-71
2021/09/15 11:12:46;;;;;;;1.02;1.02;;;;;;;11.66;53.38;99630.69;5025461;28;20052;-70
2021/09/15 11:15:34;;;;;;;1.13;1.05;;;;;;;11.73;52.97;99619.78;5053817;28;20045;-71
2021/09/15 11:18:23;;;;;;;1.65;0.90;;;;;;;11.79;52.59;99627.25;5049365;28;20056;-72
2021/09/15 11:21:13;;;;;;;0.50;0.50;;;;;;;11.91;51.54;99620.41;5048812;28;20056;-71
2021/09/15 11:24:16;;;;;;;0.70;0.70;;;;;;;12.33;50.57;99624.63;5021181;28;20145;-73
2021/09/15 11:27:08;;;;;;;0.35;0.35;;;;;;;12.45;49.80;99614.19;5049918;28;20063;-72
2021/09/15 11:30:00;;;;;;;0.40;0.40;;;;;;;12.66;50.35;99617.16;5041044;28;20078;-72
2021/09/15 11:32:45;;;;;;;;;;;;;;;12.43;49.63;99613.44;5062637;28;20048;-70
2021/09/15 11:35:33;;;;;;;0.50;0.50;;;;;;;12.29;49.71;99613.53;5049714;28;20414;-72
2021/09/15 11:38:22;;;;;;;0.68;0.68;;;;;;;12.44;49.36;99614.28;5062964;28;20048;-73
2021/09/15 11:41:12;;;;;;;0.30;0.30;;;;;;;12.28;49.37;99624.09;5048898;28;20091;-73
2021/09/15 11:44:00;;;;;;;0.50;0.50;;;;;;;12.34;48.94;99614.06;5049386;28;20053;-70
2021/09/15 11:46:45;;;;;;;0.65;0.65;;;;;;;12.56;48.72;99612.66;5062224;28;20049;-71
2021/09/15 11:49:34;;;;;;;1.20;1.20;;;;;;;12.64;48.58;99621.66;5034020;28;20044;-71
2021/09/15 11:52:22;;;;;;;0.30;0.30;;;;;;;12.39;48.86;99611.97;5049594;28;20049;-72
2021/09/15 11:55:11;;;;;;;0.57;0.57;;;;;;;12.37;49.14;99624.31;5048590;28;20088;-73
2021/09/15 11:58:02;;;;;;;0.40;0.40;;;;;;;12.54;48.67;99629.28;5049663;28;20048;-73
2021/09/15 12:00:47;;;;;;;0.82;0.82;;;;;;;12.54;47.87;99625.81;5044347;28;20060;-71
2021/09/15 12:03:33;;;;;;;4.47;0.75;;;;;;;12.95;46.64;99616.03;5049245;28;20053;-71
2021/09/15 12:06:19;;;;;;;0.50;0.50;;;;;;;13.06;46.10;99617.88;5034636;28;20048;-71
2021/09/15 12:09:06;;;;;;;0.50;0.50;;;;;;;13.20;45.92;99620.44;5048371;28;20155;-72
2021/09/15 12:11:52;;;;;;;0.40;0.40;;;;;;;12.86;46.26;99621.06;5047976;28;20211;-71
2021/09/15 12:14:38;;;;;;;0.50;0.50;;;;;;;12.79;46.65;99619.78;5049028;28;20041;-71
2021/09/15 12:17:25;;;;;;;0.50;0.50;;;;;;;12.79;45.94;99625.88;5048461;28;20045;-70
2021/09/15 12:20:11;;;;;;;0.40;0.40;;;;;;;12.70;45.88;99625.63;5049204;28;20052;-72
2021/09/15 12:22:57;;;;;;;0.50;0.50;;;;;;;12.95;45.70;99623.91;5020461;28;20047;-70
2021/09/15 12:25:53;;;;;;;0.95;0.95;;;;;;;13.10;44.56;99624.63;5048596;28;20048;-71
2021/09/15 12:28:39;;;;;;;0.50;0.50;;;;;;;12.98;44.80;99615.81;5049047;28;20052;-72
2021/09/15 12:31:25;;;;;;;1.02;1.02;;;;;;;12.92;45.27;99611.00;5049277;28;20087;-70
2021/09/15 12:34:11;;;;;;;0.47;0.47;;;;;;;13.14;45.13;99599.06;5049221;28;20052;-70
2021/09/15 12:37:17;;;;;;;0.50;0.50;;;;;;;13.31;44.45;99607.44;5048547;28;20048;-70
2021/09/15 12:40:03;;;;;;;0.60;0.60;;;;;;;13.35;44.40;99613.31;5049074;28;20127;-70
2021/09/15 12:42:58;;;;;;;0.50;0.50;;;;;;;13.34;43.63;99601.97;5047528;28;20084;-72
2021/09/15 12:45:45;;;;;;;0.40;0.40;;;;;;;13.08;44.46;99597.69;5047121;28;20048;-72
2021/09/15 12:48:38;;;;;;;0.50;0.50;;;;;;;12.82;45.17;99601.25;5042442;28;20083;-69
2021/09/15 12:51:25;;;;;;;0.47;0.47;;;;;;;13.11;44.29;99591.41;5048706;28;20045;-71
2021/09/15 12:54:11;;;;;;;0.30;0.30;;;;;;;13.34;43.29;99601.13;5048629;28;20049;-72
2021/09/15 12:57:17;;;;;;;0.45;0.45;;;;;;;13.55;43.02;99604.84;5061084;28;20110;-70
2021/09/15 13:00:19;;;;;;;0.30;0.30;;;;;;;13.33;43.06;99602.91;5048577;28;20143;-70
2021/09/15 13:03:06;;;;;;;0.70;0.70;;;;;;;13.44;43.00;99603.00;5048046;28;20136;-71
2021/09/15 13:05:52;;;;;;;0.52;0.52;;;;;;;13.82;42.43;99599.41;5048348;28;20056;-73
2021/09/15 13:08:48;;;;;;;4.85;1.35;;;;;;;13.91;42.52;99590.88;5048499;28;20048;-72
2021/09/15 13:11:34;;;;;;;0.30;0.30;;;;;;;13.96;40.77;99594.84;5048180;28;20205;-71
2021/09/15 13:14:20;;;;;;;0.63;0.63;;;;;;;13.64;40.93;99578.00;5048369;28;20125;-73
2021/09/15 13:17:06;;;;;;;0.60;0.60;;;;;;;13.73;41.69;99602.72;5061266;28;20059;-73
2021/09/15 13:19:53;;;;;;;0.70;0.70;;;;;;;13.81;40.33;99585.44;5060698;28;20049;-73